METAR* REPORTS - Stations within 60 miles

(*Meteorological Terminal Aviation Routine weather report)

 

KRDG - Reading, Pennsylvania, USA
Distance from station: SE 19mi, 31km
Updated: Sat, 02-Jul-2022 2:54pm EDT
Light rain, Partly cloudy
Light rain, Partly cloudy
 Wind from NW
Wind: NW 9 mph , 15 km/h
Temperature: 84°F , 29°C
Heat Index: 86°F , 30°C
Dew Point: 66°F , 19°C
Humidity: 55%
Barometer: 29.93 inHg , 1013.5 hPa
Summary: Light Rain
Clouds: Partly Cloudy
Visibility: 10 miles , 16 km
Cloud details: Few Clouds 4000 ft
Partly Cloudy 11000 ft
2022/07/02 18:54 KRDG 021854Z 31008KT 10SM -RA FEW040 SCT110 29/19 A2993 RMK AO2 RAB47 SLP136 P0000 T02890194 $
KLNS - Lancaster, Pennsylvania, USA
Distance from station: S 33mi, 53km
Updated: Sat, 02-Jul-2022 3:21pm EDT
Nearby thunderstorm, Few clouds
Nearby thunderstorm, Few clouds
 Wind from NNE
Wind: NNE 10 mph , 17 km/h
Temperature: 90°F , 32°C
Heat Index: 93°F , 34°C
Dew Point: 66°F , 19°C
Humidity: 46%
Barometer: 29.92 inHg , 1013.2 hPa
Summary: Nearby Thunderstorm
Clouds: Few Clouds
Visibility: 10 miles , 16 km
Cloud details: Few Clouds 5000 ft
2022/07/02 19:21 KLNS 021921Z 02009KT 10SM VCTS FEW050 32/19 A2992 RMK AO2 LTG DSNT S AND SW TSB15E17 T03170194
 
KSEG - Selinsgrove, Pennsylvania, USA
Distance from station: WNW 39mi, 62km
Updated: Sat, 02-Jul-2022 2:53pm EDT
Few Clouds
Few Clouds
 Wind from S
Wind: S 10 mph , 17 km/h
Temperature: 84°F , 29°C
Heat Index: 88°F , 31°C
Dew Point: 70°F , 21°C
Humidity: 62%
Barometer: 29.93 inHg , 1013.5 hPa
Clouds: Few Clouds
Visibility: 10 miles , 16 km
Cloud details: Few Clouds 3600 ft
2022/07/02 18:53 KSEG 021853Z AUTO 19009KT 160V230 10SM FEW036 29/21 A2993 RMK AO2 SLP131 T02940206
KABE - Allentown, Pennsylvania, USA
Distance from station: E 39mi, 63km
Updated: Sat, 02-Jul-2022 2:51pm EDT
Clear
Clear
 Wind from W
Wind: W 8 mph , 13 km/h
Temperature: 81°F , 27°C
Heat Index: 83°F , 28°C
Dew Point: 64°F , 18°C
Humidity: 58%
Barometer: 29.94 inHg , 1013.9 hPa
Clouds: Clear
Visibility: 10 miles , 16 km
2022/07/02 18:51 KABE 021851Z 28007KT 10SM CLR 27/18 A2994 RMK AO2 SLP134 T02720183
 
KMDT - Middletown, Pennsylvania, USA
Distance from station: SW 40mi, 65km
Updated: Sat, 02-Jul-2022 2:56pm EDT
Mostly Cloudy
Mostly Cloudy
 Wind from varies
Wind: varies 7 mph , 11 km/h
Temperature: 86°F , 30°C
Heat Index: 88°F , 31°C
Dew Point: 66°F , 19°C
Humidity: 52%
Barometer: 29.93 inHg , 1013.5 hPa
Clouds: Mostly Cloudy
Visibility: 10 miles , 16 km
Cloud details: Partly Cloudy 15000 ft
Mostly Cloudy 18000 ft
2022/07/02 18:56 KMDT 021856Z VRB06KT 10SM SCT150 BKN180 30/19 A2993 RMK AO2 SLP132 T03000194
KPTW - Pottstown, Pennsylvania, USA
Distance from station: SE 42mi, 67km
Updated: Sat, 02-Jul-2022 12:54pm EDT
NOT Current
Partly Cloudy
Partly Cloudy
 Wind from SW
Wind: SW 7 mph , 11 km/h
Temperature: 84°F , 29°C
Heat Index: 86°F , 30°C
Dew Point: 66°F , 19°C
Humidity: 55%
Barometer: 29.96 inHg , 1014.6 hPa
Clouds: Partly Cloudy
Visibility: 10 miles , 16 km
Cloud details: Few Clouds 4100 ft
Partly Cloudy 4900 ft
2022/07/02 16:54 KPTW 021654Z AUTO 22006KT 10SM FEW041 SCT049 29/19 A2996 RMK AO2 SLP141 T02890194
 
KCXY - Harrisburg, Pennsylvania, USA
Distance from station: SW 43mi, 69km
Updated: Sat, 02-Jul-2022 2:56pm EDT
Clear
Clear
 Wind from N
Wind: N 8 mph , 13 km/h
Temperature: 91°F , 33°C
Heat Index: 94°F , 34°C
Dew Point: 66°F , 19°C
Humidity: 44%
Barometer: 29.94 inHg , 1013.9 hPa
Clouds: Clear
Visibility: 10 miles , 16 km
2022/07/02 18:56 KCXY 021856Z 35007KT 10SM CLR 33/19 A2994 RMK AO2 SLP134 T03280194
KUKT - Quakertown Arp, Pennsylvania, USA
Distance from station: ESE 44mi, 70km
Updated: Sat, 02-Jul-2022 3:15pm EDT
Clear
Clear
 Wind from varies
Wind: varies 6 mph , 9 km/h
Temperature: 84°F , 29°C
Heat Index: 88°F , 31°C
Dew Point: 70°F , 21°C
Humidity: 62%
Barometer: 29.95 inHg , 1014.2 hPa
Clouds: Clear
Visibility: 10 miles , 16 km
2022/07/02 19:15 KUKT 021915Z AUTO VRB05KT 10SM CLR 29/21 A2995 RMK A01
 
KMQS - Coatesville, Pennsylvania, USA
Distance from station: SSE 45mi, 72km
Updated: Sat, 02-Jul-2022 3:15pm EDT
Mostly Cloudy
Mostly Cloudy
 Wind from calm
Wind: Calm
Temperature: 84°F , 29°C
Heat Index: 89°F , 32°C
Dew Point: 72°F , 22°C
Humidity: 66%
Barometer: 29.96 inHg , 1014.6 hPa
Clouds: Mostly Cloudy
Visibility: 10 miles , 16 km
Cloud details: Partly Cloudy 3900 ft
Mostly Cloudy 4700 ft
2022/07/02 19:15 KMQS 021915Z AUTO 00000KT 10SM SCT039 BKN047 29/22 A2996 RMK AO2
KMPO - Mt. Pocono, Pennsylvania, USA
Distance from station: NE 57mi, 92km
Updated: Sat, 02-Jul-2022 2:53pm EDT
Mostly Cloudy
Mostly Cloudy
 Wind from WSW
Wind: WSW 10 mph , 17 km/h
Temperature: 77°F , 25°C
Dew Point: 64°F , 18°C
Humidity: 65%
Barometer: 29.99 inHg , 1015.6 hPa
Clouds: Mostly Cloudy
Visibility: 10 miles , 16 km
Cloud details: Few Clouds 2800 ft
Mostly Cloudy 3600 ft
Mostly Cloudy 4400 ft
2022/07/02 18:53 KMPO 021853Z AUTO 24009KT 10SM FEW028 BKN036 BKN044 25/18 A2999 RMK AO2 SLP145 T02500183
 
KAVP - Avoca/Wilkes B., Pennsylvania, USA
Distance from station: NNE 58mi, 93km
Updated: Sat, 02-Jul-2022 2:54pm EDT
Few Clouds
Few Clouds
 Wind from SSW
Wind: SSW 8 mph , 13 km/h
Temperature: 84°F , 29°C
Heat Index: 86°F , 30°C
Dew Point: 66°F , 19°C
Humidity: 55%
Barometer: 29.92 inHg , 1013.2 hPa
Clouds: Few Clouds
Visibility: 10 miles , 16 km
Cloud details: Few Clouds 3800 ft
2022/07/02 18:54 KAVP 021854Z 20007KT 170V230 10SM FEW038 29/19 A2992 RMK AO2 SLP123 T02890194
KTHV - York, Pennsylvania, USA
Distance from station: SW 59mi, 94km
Updated: Sat, 02-Jul-2022 2:53pm EDT
Mostly Cloudy
Mostly Cloudy
 Wind from N
Wind: N 7 mph , 11 km/h
Temperature: 90°F , 32°C
Heat Index: 93°F , 34°C
Dew Point: 66°F , 19°C
Humidity: 46%
Barometer: 29.93 inHg , 1013.5 hPa
Clouds: Mostly Cloudy
Visibility: 10 miles , 16 km
Cloud details: Few Clouds 4900 ft
Partly Cloudy 6000 ft
Mostly Cloudy 8500 ft
2022/07/02 18:53 KTHV 021853Z AUTO 01006KT 10SM FEW049 SCT060 BKN085 32/19 A2993 RMK AO2 SLP133 T03170194
 
KDYL - Doylestown, Pennsylvania, USA
Distance from station: ESE 59mi, 95km
Updated: Sat, 02-Jul-2022 2:54pm EDT
Few Clouds
Few Clouds
 Wind from SW
Wind: SW 10 mph , 17 km/h, Gust: 16 mph , 26 km/h
Temperature: 90°F , 32°C
Heat Index: 93°F , 34°C
Dew Point: 66°F , 19°C
Humidity: 46%
Barometer: 29.92 inHg , 1013.2 hPa
Clouds: Few Clouds
Visibility: 10 miles , 16 km
Cloud details: Few Clouds 4700 ft
Few Clouds 6500 ft
2022/07/02 18:54 KDYL 021854Z AUTO 22009G14KT 10SM FEW047 FEW065 32/19 A2992 RMK AO2 SLP123 T03220194
KIPT - Williamsport, Pennsylvania, USA
Distance from station: NW 60mi, 96km
Updated: Sat, 02-Jul-2022 2:54pm EDT
Mostly Cloudy
Mostly Cloudy
 Wind from calm
Wind: Calm
Temperature: 84°F , 29°C
Heat Index: 86°F , 30°C
Dew Point: 66°F , 19°C
Humidity: 55%
Barometer: 29.90 inHg , 1012.5 hPa
Clouds: Mostly Cloudy
Visibility: 10 miles , 16 km
Cloud details: Mostly Cloudy 5500 ft
Mostly Cloudy 7000 ft
Mostly Cloudy 8000 ft
2022/07/02 18:54 KIPT 021854Z 00000KT 10SM BKN055 BKN070 BKN080 29/19 A2990 RMK AO2 SLP120 T02940189